sensor_id;sensor_type;location;lat;lon;timestamp;P1;durP1;ratioP1;P2;durP2;ratioP2
51228;SDS011;37304;52.216;6.874;2022-08-25T00:00:17;6.30;;;2.95;;
51228;SDS011;37304;52.216;6.874;2022-08-25T00:05:18;4.38;;;2.55;;
51228;SDS011;37304;52.216;6.874;2022-08-25T00:10:18;3.93;;;3.00;;
51228;SDS011;37304;52.216;6.874;2022-08-25T00:15:19;4.07;;;2.45;;
51228;SDS011;37304;52.216;6.874;2022-08-25T00:20:23;5.70;;;2.92;;
51228;SDS011;37304;52.216;6.874;2022-08-25T00:25:24;5.22;;;2.92;;
51228;SDS011;37304;52.216;6.874;2022-08-25T00:30:25;4.05;;;2.50;;
51228;SDS011;37304;52.216;6.874;2022-08-25T00:35:26;5.77;;;3.17;;
51228;SDS011;37304;52.216;6.874;2022-08-25T00:40:26;5.05;;;2.72;;
51228;SDS011;37304;52.216;6.874;2022-08-25T00:45:27;4.85;;;2.90;;
51228;SDS011;37304;52.216;6.874;2022-08-25T00:50:28;6.15;;;2.67;;
51228;SDS011;37304;52.216;6.874;2022-08-25T00:55:35;4.38;;;2.95;;
51228;SDS011;37304;52.216;6.874;2022-08-25T01:00:39;4.43;;;2.50;;
51228;SDS011;37304;52.216;6.874;2022-08-25T01:05:42;3.00;;;2.70;;
51228;SDS011;37304;52.216;6.874;2022-08-25T01:10:44;3.97;;;2.40;;
51228;SDS011;37304;52.216;6.874;2022-08-25T01:15:46;3.42;;;2.75;;
51228;SDS011;37304;52.216;6.874;2022-08-25T01:20:49;5.75;;;2.70;;
51228;SDS011;37304;52.216;6.874;2022-08-25T01:25:57;3.47;;;2.50;;
51228;SDS011;37304;52.216;6.874;2022-08-25T01:31:12;6.90;;;2.90;;
51228;SDS011;37304;52.216;6.874;2022-08-25T01:36:16;5.40;;;2.70;;
51228;SDS011;37304;52.216;6.874;2022-08-25T01:41:24;3.15;;;2.58;;
51228;SDS011;37304;52.216;6.874;2022-08-25T01:46:39;5.35;;;2.95;;
51228;SDS011;37304;52.216;6.874;2022-08-25T01:51:46;5.78;;;2.97;;
51228;SDS011;37304;52.216;6.874;2022-08-25T01:57:00;8.02;;;3.20;;
51228;SDS011;37304;52.216;6.874;2022-08-25T02:02:00;5.45;;;2.75;;
51228;SDS011;37304;52.216;6.874;2022-08-25T02:07:02;3.92;;;3.00;;
51228;SDS011;37304;52.216;6.874;2022-08-25T02:12:04;5.47;;;2.80;;
51228;SDS011;37304;52.216;6.874;2022-08-25T02:17:05;5.35;;;2.60;;
51228;SDS011;37304;52.216;6.874;2022-08-25T02:22:06;5.37;;;3.10;;
51228;SDS011;37304;52.216;6.874;2022-08-25T02:27:06;7.65;;;3.13;;
51228;SDS011;37304;52.216;6.874;2022-08-25T02:32:07;4.13;;;2.63;;
51228;SDS011;37304;52.216;6.874;2022-08-25T02:37:07;5.57;;;2.88;;
51228;SDS011;37304;52.216;6.874;2022-08-25T02:42:08;4.27;;;3.03;;
51228;SDS011;37304;52.216;6.874;2022-08-25T02:47:08;4.87;;;3.20;;
51228;SDS011;37304;52.216;6.874;2022-08-25T02:52:08;7.33;;;2.87;;
51228;SDS011;37304;52.216;6.874;2022-08-25T02:57:09;4.22;;;3.00;;
51228;SDS011;37304;52.216;6.874;2022-08-25T03:02:10;3.60;;;3.05;;
51228;SDS011;37304;52.216;6.874;2022-08-25T03:07:11;5.07;;;2.80;;
51228;SDS011;37304;52.216;6.874;2022-08-25T03:12:11;5.13;;;2.92;;
51228;SDS011;37304;52.216;6.874;2022-08-25T03:17:13;5.85;;;3.47;;
51228;SDS011;37304;52.216;6.874;2022-08-25T03:22:13;4.88;;;3.03;;
51228;SDS011;37304;52.216;6.874;2022-08-25T03:27:13;4.20;;;3.40;;
51228;SDS011;37304;52.216;6.874;2022-08-25T03:32:14;5.10;;;3.40;;
51228;SDS011;37304;52.216;6.874;2022-08-25T03:37:14;6.07;;;3.57;;
51228;SDS011;37304;52.216;6.874;2022-08-25T03:42:15;5.20;;;3.20;;
51228;SDS011;37304;52.216;6.874;2022-08-25T03:47:15;3.55;;;2.80;;
51228;SDS011;37304;52.216;6.874;2022-08-25T03:52:15;7.25;;;3.72;;
51228;SDS011;37304;52.216;6.874;2022-08-25T03:57:17;5.22;;;3.22;;
51228;SDS011;37304;52.216;6.874;2022-08-25T04:02:19;6.53;;;4.07;;
51228;SDS011;37304;52.216;6.874;2022-08-25T04:07:19;5.65;;;3.53;;
51228;SDS011;37304;52.216;6.874;2022-08-25T04:12:20;6.82;;;3.30;;
51228;SDS011;37304;52.216;6.874;2022-08-25T04:17:20;7.60;;;3.60;;
51228;SDS011;37304;52.216;6.874;2022-08-25T04:22:21;5.38;;;3.35;;
51228;SDS011;37304;52.216;6.874;2022-08-25T04:27:22;4.20;;;3.40;;
51228;SDS011;37304;52.216;6.874;2022-08-25T04:32:22;6.22;;;3.83;;
51228;SDS011;37304;52.216;6.874;2022-08-25T04:37:22;9.80;;;4.47;;
51228;SDS011;37304;52.216;6.874;2022-08-25T04:42:23;6.27;;;4.27;;
51228;SDS011;37304;52.216;6.874;2022-08-25T04:47:25;6.82;;;3.90;;
51228;SDS011;37304;52.216;6.874;2022-08-25T04:52:25;4.50;;;3.70;;
51228;SDS011;37304;52.216;6.874;2022-08-25T04:57:25;6.67;;;3.70;;
51228;SDS011;37304;52.216;6.874;2022-08-25T05:02:26;4.45;;;4.05;;
51228;SDS011;37304;52.216;6.874;2022-08-25T05:07:27;4.93;;;3.70;;
51228;SDS011;37304;52.216;6.874;2022-08-25T05:12:27;5.93;;;3.75;;
51228;SDS011;37304;52.216;6.874;2022-08-25T05:17:27;10.13;;;4.55;;
51228;SDS011;37304;52.216;6.874;2022-08-25T05:22:28;4.45;;;3.65;;
51228;SDS011;37304;52.216;6.874;2022-08-25T05:27:28;8.02;;;4.05;;
51228;SDS011;37304;52.216;6.874;2022-08-25T05:32:28;6.75;;;3.97;;
51228;SDS011;37304;52.216;6.874;2022-08-25T05:37:29;8.23;;;4.28;;
51228;SDS011;37304;52.216;6.874;2022-08-25T05:42:29;5.57;;;4.43;;
51228;SDS011;37304;52.216;6.874;2022-08-25T05:47:30;10.40;;;4.68;;
51228;SDS011;37304;52.216;6.874;2022-08-25T05:52:30;6.18;;;4.03;;
51228;SDS011;37304;52.216;6.874;2022-08-25T05:57:32;6.18;;;4.18;;
51228;SDS011;37304;52.216;6.874;2022-08-25T06:02:33;6.65;;;4.07;;
51228;SDS011;37304;52.216;6.874;2022-08-25T06:07:49;7.00;;;4.68;;
51228;SDS011;37304;52.216;6.874;2022-08-25T06:12:51;4.88;;;4.10;;
51228;SDS011;37304;52.216;6.874;2022-08-25T06:17:51;6.90;;;4.28;;
51228;SDS011;37304;52.216;6.874;2022-08-25T06:22:52;5.88;;;4.00;;
51228;SDS011;37304;52.216;6.874;2022-08-25T06:27:53;6.95;;;4.68;;
51228;SDS011;37304;52.216;6.874;2022-08-25T06:32:54;4.70;;;4.15;;
51228;SDS011;37304;52.216;6.874;2022-08-25T06:37:54;8.63;;;4.13;;
51228;SDS011;37304;52.216;6.874;2022-08-25T06:42:54;5.50;;;4.00;;
51228;SDS011;37304;52.216;6.874;2022-08-25T06:47:56;6.22;;;4.10;;
51228;SDS011;37304;52.216;6.874;2022-08-25T06:52:58;9.15;;;4.05;;
51228;SDS011;37304;52.216;6.874;2022-08-25T06:57:58;6.13;;;4.28;;
51228;SDS011;37304;52.216;6.874;2022-08-25T07:02:58;6.00;;;4.20;;
51228;SDS011;37304;52.216;6.874;2022-08-25T07:08:00;5.75;;;3.78;;
51228;SDS011;37304;52.216;6.874;2022-08-25T07:13:00;5.68;;;3.78;;
51228;SDS011;37304;52.216;6.874;2022-08-25T07:18:01;5.05;;;3.67;;
51228;SDS011;37304;52.216;6.874;2022-08-25T07:23:01;6.32;;;3.80;;
51228;SDS011;37304;52.216;6.874;2022-08-25T07:28:02;6.33;;;4.07;;
51228;SDS011;37304;52.216;6.874;2022-08-25T07:33:02;7.88;;;4.03;;
51228;SDS011;37304;52.216;6.874;2022-08-25T07:38:03;7.30;;;3.90;;
51228;SDS011;37304;52.216;6.874;2022-08-25T07:43:06;7.67;;;4.37;;
51228;SDS011;37304;52.216;6.874;2022-08-25T07:48:09;8.15;;;3.78;;
51228;SDS011;37304;52.216;6.874;2022-08-25T07:53:11;6.63;;;3.80;;
51228;SDS011;37304;52.216;6.874;2022-08-25T07:58:13;6.05;;;3.53;;
51228;SDS011;37304;52.216;6.874;2022-08-25T08:03:15;5.25;;;3.72;;
51228;SDS011;37304;52.216;6.874;2022-08-25T08:08:15;6.30;;;3.60;;
51228;SDS011;37304;52.216;6.874;2022-08-25T08:13:15;9.93;;;3.72;;
51228;SDS011;37304;52.216;6.874;2022-08-25T08:18:16;8.23;;;3.80;;
51228;SDS011;37304;52.216;6.874;2022-08-25T08:23:16;6.65;;;3.90;;
51228;SDS011;37304;52.216;6.874;2022-08-25T08:28:17;9.98;;;3.65;;
51228;SDS011;37304;52.216;6.874;2022-08-25T08:33:17;4.47;;;3.30;;
51228;SDS011;37304;52.216;6.874;2022-08-25T08:38:17;7.07;;;4.75;;
51228;SDS011;37304;52.216;6.874;2022-08-25T08:43:17;4.38;;;3.88;;
51228;SDS011;37304;52.216;6.874;2022-08-25T08:59:18;12.15;;;4.13;;
51228;SDS011;37304;52.216;6.874;2022-08-25T09:09:40;8.35;;;4.50;;
51228;SDS011;37304;52.216;6.874;2022-08-25T09:20:08;4.38;;;3.53;;
51228;SDS011;37304;52.216;6.874;2022-08-25T09:30:36;6.68;;;4.07;;
51228;SDS011;37304;52.216;6.874;2022-08-25T09:35:53;6.32;;;3.78;;
51228;SDS011;37304;52.216;6.874;2022-08-25T09:40:56;5.75;;;4.10;;
51228;SDS011;37304;52.216;6.874;2022-08-25T09:51:19;5.07;;;3.75;;
51228;SDS011;37304;52.216;6.874;2022-08-25T10:01:27;14.55;;;3.92;;
51228;SDS011;37304;52.216;6.874;2022-08-25T10:06:29;4.68;;;2.95;;
51228;SDS011;37304;52.216;6.874;2022-08-25T10:11:41;5.22;;;3.53;;
51228;SDS011;37304;52.216;6.874;2022-08-25T10:16:44;6.32;;;3.70;;
51228;SDS011;37304;52.216;6.874;2022-08-25T10:21:46;8.27;;;3.37;;
51228;SDS011;37304;52.216;6.874;2022-08-25T10:27:16;5.70;;;3.30;;
51228;SDS011;37304;52.216;6.874;2022-08-25T10:48:46;3.47;;;2.80;;
51228;SDS011;37304;52.216;6.874;2022-08-25T10:59:15;4.88;;;2.60;;
51228;SDS011;37304;52.216;6.874;2022-08-25T11:04:22;3.08;;;2.70;;
51228;SDS011;37304;52.216;6.874;2022-08-25T11:09:29;5.05;;;3.28;;
51228;SDS011;37304;52.216;6.874;2022-08-25T11:14:42;3.28;;;2.80;;
51228;SDS011;37304;52.216;6.874;2022-08-25T11:19:49;6.00;;;2.92;;
51228;SDS011;37304;52.216;6.874;2022-08-25T11:24:59;3.67;;;2.80;;
51228;SDS011;37304;52.216;6.874;2022-08-25T11:30:12;2.88;;;2.60;;
51228;SDS011;37304;52.216;6.874;2022-08-25T11:35:18;4.55;;;3.20;;
51228;SDS011;37304;52.216;6.874;2022-08-25T11:40:31;5.95;;;3.13;;
51228;SDS011;37304;52.216;6.874;2022-08-25T11:51:42;3.13;;;2.50;;
51228;SDS011;37304;52.216;6.874;2022-08-25T11:57:01;4.72;;;2.25;;
51228;SDS011;37304;52.216;6.874;2022-08-25T12:02:05;3.22;;;2.85;;
51228;SDS011;37304;52.216;6.874;2022-08-25T12:17:36;3.95;;;2.50;;
51228;SDS011;37304;52.216;6.874;2022-08-25T12:22:38;5.80;;;2.83;;
51228;SDS011;37304;52.216;6.874;2022-08-25T12:27:50;2.95;;;2.50;;
51228;SDS011;37304;52.216;6.874;2022-08-25T12:38:26;4.60;;;2.50;;
51228;SDS011;37304;52.216;6.874;2022-08-25T12:43:33;3.75;;;2.10;;
51228;SDS011;37304;52.216;6.874;2022-08-25T12:53:45;3.10;;;2.13;;
51228;SDS011;37304;52.216;6.874;2022-08-25T12:59:11;5.65;;;2.47;;
51228;SDS011;37304;52.216;6.874;2022-08-25T13:15:10;3.95;;;2.20;;
51228;SDS011;37304;52.216;6.874;2022-08-25T13:20:23;3.30;;;2.10;;
51228;SDS011;37304;52.216;6.874;2022-08-25T13:25:28;2.80;;;2.38;;
51228;SDS011;37304;52.216;6.874;2022-08-25T13:30:30;2.42;;;1.83;;
51228;SDS011;37304;52.216;6.874;2022-08-25T13:35:32;4.35;;;2.40;;
51228;SDS011;37304;52.216;6.874;2022-08-25T13:40:33;4.75;;;2.40;;
51228;SDS011;37304;52.216;6.874;2022-08-25T13:45:39;4.80;;;2.42;;
51228;SDS011;37304;52.216;6.874;2022-08-25T13:50:42;4.35;;;2.20;;
51228;SDS011;37304;52.216;6.874;2022-08-25T13:55:49;3.30;;;1.80;;
51228;SDS011;37304;52.216;6.874;2022-08-25T14:01:05;2.90;;;1.88;;
51228;SDS011;37304;52.216;6.874;2022-08-25T14:11:29;3.83;;;1.88;;
51228;SDS011;37304;52.216;6.874;2022-08-25T14:16:36;2.88;;;2.08;;
51228;SDS011;37304;52.216;6.874;2022-08-25T14:22:00;4.25;;;1.75;;
51228;SDS011;37304;52.216;6.874;2022-08-25T14:27:01;5.40;;;2.20;;
51228;SDS011;37304;52.216;6.874;2022-08-25T14:32:02;4.53;;;2.00;;
51228;SDS011;37304;52.216;6.874;2022-08-25T14:37:13;3.47;;;2.05;;
51228;SDS011;37304;52.216;6.874;2022-08-25T14:42:16;4.40;;;2.40;;
51228;SDS011;37304;52.216;6.874;2022-08-25T14:47:17;4.60;;;2.30;;
51228;SDS011;37304;52.216;6.874;2022-08-25T14:52:23;2.88;;;2.28;;
51228;SDS011;37304;52.216;6.874;2022-08-25T14:57:27;3.35;;;2.45;;
51228;SDS011;37304;52.216;6.874;2022-08-25T15:02:28;6.10;;;2.30;;
51228;SDS011;37304;52.216;6.874;2022-08-25T15:07:29;4.07;;;2.60;;
51228;SDS011;37304;52.216;6.874;2022-08-25T15:12:50;6.55;;;3.03;;
51228;SDS011;37304;52.216;6.874;2022-08-25T15:17:50;6.80;;;3.00;;
51228;SDS011;37304;52.216;6.874;2022-08-25T15:22:51;4.68;;;3.05;;
51228;SDS011;37304;52.216;6.874;2022-08-25T15:27:51;5.73;;;3.90;;
51228;SDS011;37304;52.216;6.874;2022-08-25T15:32:52;5.85;;;3.20;;
51228;SDS011;37304;52.216;6.874;2022-08-25T15:37:53;6.03;;;3.20;;
51228;SDS011;37304;52.216;6.874;2022-08-25T15:42:53;10.23;;;3.40;;
51228;SDS011;37304;52.216;6.874;2022-08-25T15:47:53;5.27;;;3.50;;
51228;SDS011;37304;52.216;6.874;2022-08-25T15:52:54;4.78;;;3.20;;
51228;SDS011;37304;52.216;6.874;2022-08-25T15:57:54;6.80;;;3.83;;
51228;SDS011;37304;52.216;6.874;2022-08-25T16:02:54;5.43;;;3.20;;
51228;SDS011;37304;52.216;6.874;2022-08-25T16:07:55;8.85;;;3.45;;
51228;SDS011;37304;52.216;6.874;2022-08-25T16:12:55;3.33;;;2.75;;
51228;SDS011;37304;52.216;6.874;2022-08-25T16:17:57;4.15;;;3.03;;
51228;SDS011;37304;52.216;6.874;2022-08-25T16:22:58;5.03;;;3.90;;
51228;SDS011;37304;52.216;6.874;2022-08-25T16:28:01;3.38;;;2.70;;
51228;SDS011;37304;52.216;6.874;2022-08-25T16:33:01;5.97;;;3.60;;
51228;SDS011;37304;52.216;6.874;2022-08-25T16:38:02;8.87;;;3.57;;
51228;SDS011;37304;52.216;6.874;2022-08-25T16:43:03;4.50;;;3.53;;
51228;SDS011;37304;52.216;6.874;2022-08-25T16:48:05;4.25;;;3.38;;
51228;SDS011;37304;52.216;6.874;2022-08-25T16:53:05;4.20;;;3.20;;
51228;SDS011;37304;52.216;6.874;2022-08-25T16:58:24;4.90;;;3.42;;
51228;SDS011;37304;52.216;6.874;2022-08-25T17:03:24;4.63;;;3.17;;
51228;SDS011;37304;52.216;6.874;2022-08-25T17:08:24;4.78;;;3.05;;
51228;SDS011;37304;52.216;6.874;2022-08-25T17:13:28;4.82;;;3.33;;
51228;SDS011;37304;52.216;6.874;2022-08-25T17:18:29;4.72;;;3.10;;
51228;SDS011;37304;52.216;6.874;2022-08-25T17:23:30;3.42;;;3.08;;
51228;SDS011;37304;52.216;6.874;2022-08-25T17:28:32;4.88;;;3.42;;
51228;SDS011;37304;52.216;6.874;2022-08-25T17:33:32;5.53;;;3.25;;
51228;SDS011;37304;52.216;6.874;2022-08-25T17:38:34;4.15;;;3.28;;
51228;SDS011;37304;52.216;6.874;2022-08-25T17:43:36;3.93;;;3.37;;
51228;SDS011;37304;52.216;6.874;2022-08-25T17:48:38;4.10;;;3.28;;
51228;SDS011;37304;52.216;6.874;2022-08-25T17:53:40;4.55;;;3.58;;
51228;SDS011;37304;52.216;6.874;2022-08-25T17:58:40;5.38;;;3.40;;
51228;SDS011;37304;52.216;6.874;2022-08-25T18:03:41;4.60;;;3.65;;
51228;SDS011;37304;52.216;6.874;2022-08-25T18:08:44;5.93;;;3.67;;
51228;SDS011;37304;52.216;6.874;2022-08-25T18:13:45;5.60;;;3.42;;
51228;SDS011;37304;52.216;6.874;2022-08-25T18:18:45;6.85;;;3.78;;
51228;SDS011;37304;52.216;6.874;2022-08-25T18:23:46;4.55;;;3.53;;
51228;SDS011;37304;52.216;6.874;2022-08-25T18:28:47;4.53;;;3.50;;
51228;SDS011;37304;52.216;6.874;2022-08-25T18:33:50;5.50;;;3.58;;
51228;SDS011;37304;52.216;6.874;2022-08-25T18:38:58;6.50;;;4.00;;
51228;SDS011;37304;52.216;6.874;2022-08-25T18:44:17;6.93;;;4.32;;
51228;SDS011;37304;52.216;6.874;2022-08-25T18:49:18;7.88;;;4.20;;
51228;SDS011;37304;52.216;6.874;2022-08-25T18:54:19;7.30;;;4.78;;
51228;SDS011;37304;52.216;6.874;2022-08-25T19:04:22;7.35;;;4.88;;
51228;SDS011;37304;52.216;6.874;2022-08-25T19:09:23;6.75;;;4.72;;
51228;SDS011;37304;52.216;6.874;2022-08-25T19:14:23;9.65;;;4.97;;
51228;SDS011;37304;52.216;6.874;2022-08-25T19:19:24;8.73;;;4.80;;
51228;SDS011;37304;52.216;6.874;2022-08-25T19:24:25;7.82;;;5.00;;
51228;SDS011;37304;52.216;6.874;2022-08-25T19:29:27;7.17;;;4.90;;
51228;SDS011;37304;52.216;6.874;2022-08-25T19:34:30;5.10;;;4.50;;
51228;SDS011;37304;52.216;6.874;2022-08-25T19:39:35;8.13;;;5.10;;
51228;SDS011;37304;52.216;6.874;2022-08-25T19:44:36;6.07;;;5.30;;
51228;SDS011;37304;52.216;6.874;2022-08-25T19:49:37;8.00;;;5.10;;
51228;SDS011;37304;52.216;6.874;2022-08-25T19:54:42;7.27;;;4.73;;
51228;SDS011;37304;52.216;6.874;2022-08-25T19:59:45;6.47;;;4.90;;
51228;SDS011;37304;52.216;6.874;2022-08-25T20:04:47;5.80;;;4.68;;
51228;SDS011;37304;52.216;6.874;2022-08-25T20:09:49;7.80;;;5.40;;
51228;SDS011;37304;52.216;6.874;2022-08-25T20:14:51;9.13;;;5.33;;
51228;SDS011;37304;52.216;6.874;2022-08-25T20:19:54;8.60;;;5.70;;
51228;SDS011;37304;52.216;6.874;2022-08-25T20:25:00;6.90;;;5.30;;
51228;SDS011;37304;52.216;6.874;2022-08-25T20:30:05;7.57;;;5.68;;
51228;SDS011;37304;52.216;6.874;2022-08-25T20:35:09;8.95;;;5.55;;
51228;SDS011;37304;52.216;6.874;2022-08-25T20:40:12;6.50;;;5.43;;
51228;SDS011;37304;52.216;6.874;2022-08-25T20:45:17;6.78;;;4.93;;
51228;SDS011;37304;52.216;6.874;2022-08-25T20:55:22;9.48;;;5.43;;
51228;SDS011;37304;52.216;6.874;2022-08-25T21:00:23;7.22;;;5.35;;
51228;SDS011;37304;52.216;6.874;2022-08-25T21:05:23;6.93;;;5.15;;
51228;SDS011;37304;52.216;6.874;2022-08-25T21:10:24;6.43;;;4.78;;
51228;SDS011;37304;52.216;6.874;2022-08-25T21:15:24;8.48;;;5.60;;
51228;SDS011;37304;52.216;6.874;2022-08-25T21:20:25;15.18;;;6.80;;
51228;SDS011;37304;52.216;6.874;2022-08-25T21:25:25;11.77;;;6.18;;
51228;SDS011;37304;52.216;6.874;2022-08-25T21:30:26;10.02;;;6.15;;
51228;SDS011;37304;52.216;6.874;2022-08-25T21:35:27;10.43;;;5.82;;
51228;SDS011;37304;52.216;6.874;2022-08-25T21:40:27;8.98;;;5.85;;
51228;SDS011;37304;52.216;6.874;2022-08-25T21:45:28;10.70;;;6.13;;
51228;SDS011;37304;52.216;6.874;2022-08-25T21:50:28;9.48;;;6.28;;
51228;SDS011;37304;52.216;6.874;2022-08-25T21:55:29;11.60;;;6.60;;
51228;SDS011;37304;52.216;6.874;2022-08-25T22:00:30;8.18;;;6.80;;
51228;SDS011;37304;52.216;6.874;2022-08-25T22:05:34;8.20;;;6.88;;
51228;SDS011;37304;52.216;6.874;2022-08-25T22:10:40;8.23;;;6.25;;
51228;SDS011;37304;52.216;6.874;2022-08-25T22:15:42;8.68;;;7.20;;
51228;SDS011;37304;52.216;6.874;2022-08-25T22:20:42;9.32;;;6.85;;
51228;SDS011;37304;52.216;6.874;2022-08-25T22:25:43;8.98;;;6.70;;
51228;SDS011;37304;52.216;6.874;2022-08-25T22:30:44;9.80;;;7.07;;
51228;SDS011;37304;52.216;6.874;2022-08-25T22:35:44;11.57;;;6.72;;
51228;SDS011;37304;52.216;6.874;2022-08-25T22:40:45;8.35;;;6.60;;
51228;SDS011;37304;52.216;6.874;2022-08-25T22:45:45;9.27;;;6.80;;
51228;SDS011;37304;52.216;6.874;2022-08-25T22:50:46;11.15;;;7.07;;
51228;SDS011;37304;52.216;6.874;2022-08-25T22:55:46;8.88;;;7.95;;
51228;SDS011;37304;52.216;6.874;2022-08-25T23:00:47;8.93;;;7.80;;
51228;SDS011;37304;52.216;6.874;2022-08-25T23:05:47;9.95;;;7.65;;
51228;SDS011;37304;52.216;6.874;2022-08-25T23:10:52;10.13;;;8.23;;
51228;SDS011;37304;52.216;6.874;2022-08-25T23:15:54;9.60;;;7.13;;
51228;SDS011;37304;52.216;6.874;2022-08-25T23:20:54;10.05;;;7.07;;
51228;SDS011;37304;52.216;6.874;2022-08-25T23:26:14;10.35;;;7.30;;
51228;SDS011;37304;52.216;6.874;2022-08-25T23:31:15;9.82;;;7.28;;
51228;SDS011;37304;52.216;6.874;2022-08-25T23:36:16;10.70;;;7.32;;
51228;SDS011;37304;52.216;6.874;2022-08-25T23:41:19;13.00;;;10.00;;
51228;SDS011;37304;52.216;6.874;2022-08-25T23:46:22;16.15;;;11.63;;
51228;SDS011;37304;52.216;6.874;2022-08-25T23:51:24;16.95;;;13.60;;
51228;SDS011;37304;52.216;6.874;2022-08-25T23:56:29;21.27;;;17.60;;
